Time;durP1;ratioP1;P1;durP2;ratioP2;P2;SDS_P1;SDS_P2;PMS_P1;PMS_P2;Temp;Humidity;BMP_temperature;BMP_pressure;BME280_temperature;BME280_humidity;BME280_pressure;Samples;Min_cycle;Max_cycle;Signal;HPM_P1;HPM_P2
2022/12/19 05:28:58;;;;;;;0.73;0.73;;;;;;;-145.06;100.00;60892.56;6005728;22;20027;-92
2022/12/19 05:44:49;;;;;;;0.90;0.85;;;;;;;-145.06;100.00;60892.56;6007883;22;20100;-88
2022/12/19 05:47:43;;;;;;;1.65;1.05;;;;;;;-145.06;100.00;60892.56;5972281;23;20009;-90
2022/12/19 05:50:35;;;;;;;1.75;1.10;;;;;;;-145.06;100.00;60892.56;5973186;23;20602;-91
2022/12/19 05:53:20;;;;;;;0.93;0.82;;;;;;;-145.06;100.00;60892.56;5973212;23;20009;-91
2022/12/19 05:56:20;;;;;;;1.52;1.13;;;;;;;-145.06;100.00;60892.56;5952262;23;20005;-90
2022/12/19 05:59:26;;;;;;;1.65;1.30;;;;;;;-145.06;100.00;60892.56;5951922;23;20060;-91
2022/12/19 14:10:38;;;;;;;1.13;0.70;;;;;;;-145.06;100.00;60892.56;5899965;23;20010;-92
2022/12/19 14:28:06;;;;;;;1.42;0.90;;;;;;;-145.06;100.00;60892.56;5723914;24;20594;-92
2022/12/19 14:31:57;;;;;;;;;;;;;;;;;;;;;
2022/12/19 14:38:50;;;;;;;;;;;;;;;;;;;;;
2022/12/19 14:45:50;;;;;;;0.90;0.80;;;;;;;-145.06;100.00;60892.56;5939764;23;20132;-91
2022/12/19 14:48:54;;;;;;;1.55;1.20;;;;;;;-145.06;100.00;60892.56;5955734;23;20025;-91
2022/12/19 14:52:04;;;;;;;1.38;0.95;;;;;;;-145.06;100.00;60892.56;5956320;23;20005;-92
2022/12/19 14:55:19;;;;;;;1.38;1.00;;;;;;;-145.06;100.00;60892.56;5970418;23;20008;-92
2022/12/19 14:58:32;;;;;;;1.30;1.00;;;;;;;-145.06;100.00;60892.56;5961820;23;20028;-92
2022/12/19 15:01:54;;;;;;;1.13;0.93;;;;;;;-145.06;100.00;60892.56;5987682;23;20001;-93
2022/12/19 15:04:59;;;;;;;1.98;1.00;;;;;;;-145.06;100.00;60892.56;5986659;23;20009;-91
2022/12/19 15:07:43;;;;;;;2.00;1.05;;;;;;;-145.06;100.00;60892.56;5981826;23;20004;-91
2022/12/19 15:10:33;;;;;;;2.00;1.15;;;;;;;-145.06;100.00;60892.56;5982356;23;20004;-92
2022/12/19 15:17:53;;;;;;;1.27;0.93;;;;;;;-145.06;100.00;60892.56;5929228;23;20002;-91
2022/12/19 15:21:12;;;;;;;2.20;1.23;;;;;;;-145.06;100.00;60892.56;6008712;23;20032;-91
2022/12/19 15:23:55;;;;;;;1.55;1.00;;;;;;;-145.06;100.00;60892.56;5987216;23;20233;-90
2022/12/19 15:30:56;;;;;;;1.38;1.13;;;;;;;-145.06;100.00;60892.56;6002261;23;20016;-92
2022/12/19 15:33:36;;;;;;;1.20;0.82;;;;;;;-145.06;100.00;60892.56;5983244;23;20430;-91
2022/12/19 15:36:30;;;;;;;;;;;;;;;;;;;;;
2022/12/19 15:39:10;;;;;;;1.27;0.90;;;;;;;-145.06;100.00;60892.56;6015119;23;20355;-92
2022/12/19 15:42:10;;;;;;;1.50;1.10;;;;;;;-145.06;100.00;60892.56;5982468;23;20008;-90
2022/12/19 15:44:52;;;;;;;1.45;1.00;;;;;;;-145.06;100.00;60892.56;5982712;23;20008;-92
2022/12/19 15:47:44;;;;;;;1.15;0.88;;;;;;;-145.06;100.00;60892.56;5982791;23;20009;-90
2022/12/19 15:50:41;;;;;;;1.50;1.13;;;;;;;-145.06;100.00;60892.56;5982700;23;20005;-91
2022/12/19 15:53:31;;;;;;;0.80;0.65;;;;;;;-145.06;100.00;60892.56;5983008;23;20024;-91
2022/12/19 15:56:31;;;;;;;1.63;1.20;;;;;;;-145.06;100.00;60892.56;5981572;23;20008;-90
2022/12/19 15:59:22;;;;;;;1.08;0.70;;;;;;;-145.06;100.00;60892.56;5980882;23;19997;-91
2022/12/19 16:02:02;;;;;;;1.70;0.98;;;;;;;-145.06;100.00;60892.56;5980741;23;20482;-91
2022/12/19 16:04:42;;;;;;;0.90;0.70;;;;;;;-145.06;100.00;60892.56;5980667;23;20012;-89
2022/12/19 16:07:25;;;;;;;1.23;0.70;;;;;;;-145.06;100.00;60892.56;5980671;23;20426;-92
2022/12/19 16:10:08;;;;;;;1.20;0.80;;;;;;;-145.06;100.00;60892.56;5980860;23;20008;-91
2022/12/19 16:12:55;;;;;;;0.65;0.60;;;;;;;-145.06;100.00;60892.56;5981588;23;20004;-91
2022/12/19 16:15:41;;;;;;;0.80;0.60;;;;;;;-145.06;100.00;60892.56;5981487;23;20064;-90
2022/12/19 16:18:32;;;;;;;1.83;0.82;;;;;;;-145.06;100.00;60892.56;5984334;23;20434;-92
2022/12/19 16:21:30;;;;;;;1.08;0.65;;;;;;;-145.06;100.00;60892.56;5983885;23;20009;-91
2022/12/19 16:24:29;;;;;;;0.52;0.47;;;;;;;-145.06;100.00;60892.56;5995293;23;20020;-92
2022/12/19 16:27:51;;;;;;;1.08;0.60;;;;;;;-145.06;100.00;60892.56;5985202;23;20009;-90
2022/12/19 16:30:43;;;;;;;0.68;0.43;;;;;;;-145.06;100.00;60892.56;5984208;23;20075;-92
2022/12/19 16:33:27;;;;;;;0.90;0.70;;;;;;;-145.06;100.00;60892.56;5981749;23;20001;-91
2022/12/19 16:36:09;;;;;;;0.60;0.60;;;;;;;-145.06;100.00;60892.56;5980589;23;20080;-91
2022/12/19 16:38:51;;;;;;;0.93;0.60;;;;;;;-145.06;100.00;60892.56;6012956;23;20446;-91
2022/12/19 16:41:30;;;;;;;1.25;0.80;;;;;;;-145.06;100.00;60892.56;5980962;23;20004;-92
2022/12/19 16:44:18;;;;;;;1.08;0.80;;;;;;;-145.06;100.00;60892.56;5981260;23;20009;-92
2022/12/19 16:47:00;;;;;;;1.98;0.98;;;;;;;-145.06;100.00;60892.56;5980110;23;20005;-92
2022/12/19 16:49:39;;;;;;;1.50;0.80;;;;;;;-145.06;100.00;60892.56;5981142;23;20075;-90
2022/12/19 16:52:23;;;;;;;0.95;0.68;;;;;;;-145.06;100.00;60892.56;5981319;23;20005;-91
2022/12/19 16:55:03;;;;;;;1.25;0.80;;;;;;;-145.06;100.00;60892.56;5980963;23;20032;-92
2022/12/19 16:57:48;;;;;;;1.65;0.90;;;;;;;-145.06;100.00;60892.56;5981681;23;20000;-91
2022/12/19 17:38:10;;;;;;;1.17;0.70;;;;;;;-145.06;100.00;60892.56;5935710;23;20022;-91
2022/12/19 17:44:49;;;;;;;2.45;0.90;;;;;;;-145.06;100.00;60892.56;5786638;24;20051;-91
2022/12/19 17:48:16;;;;;;;0.70;0.60;;;;;;;-145.06;100.00;60892.56;5917796;22;20092;-91
2022/12/19 17:50:56;;;;;;;1.60;0.90;;;;;;;-145.06;100.00;60892.56;6003125;23;20013;-93
2022/12/19 17:53:35;;;;;;;5.15;1.20;;;;;;;-145.06;100.00;60892.56;6002063;23;20001;-92
2022/12/19 17:56:26;;;;;;;1.70;1.00;;;;;;;-145.06;100.00;60892.56;6001723;23;20004;-89
2022/12/19 17:59:19;;;;;;;1.98;0.80;;;;;;;-145.06;100.00;60892.56;6001853;23;20442;-91
2022/12/19 18:01:58;;;;;;;1.80;1.00;;;;;;;-145.06;100.00;60892.56;6002784;23;20493;-92
2022/12/19 18:05:00;;;;;;;1.10;0.90;;;;;;;-145.06;100.00;60892.56;6003515;23;20004;-92
2022/12/19 18:08:15;;;;;;;1.80;0.90;;;;;;;-145.06;100.00;60892.56;6002261;23;20372;-92
2022/12/19 18:11:24;;;;;;;;;;;;;;;;;;;;;
2022/12/19 18:14:07;;;;;;;1.13;0.70;;;;;;;-145.06;100.00;60892.56;6013298;23;20004;-92
2022/12/19 18:16:51;;;;;;;1.00;0.70;;;;;;;-145.06;100.00;60892.56;6003479;23;20004;-92
2022/12/19 18:19:35;;;;;;;0.95;0.80;;;;;;;-145.06;100.00;60892.56;6002871;23;20001;-91
2022/12/19 18:25:55;;;;;;;1.05;0.60;;;;;;;-145.06;100.00;60892.56;6014046;23;20008;-91
2022/12/19 18:29:29;;;;;;;;;;;;;;;;;;;;;
2022/12/19 18:32:46;;;;;;;1.08;0.80;;;;;;;-145.06;100.00;60892.56;5952800;23;20002;-92
2022/12/19 18:35:54;;;;;;;;;;;;;;;;;;;;;
2022/12/19 18:38:38;;;;;;;1.02;0.70;;;;;;;-145.06;100.00;60892.56;5953196;23;20049;-91
2022/12/19 18:44:54;;;;;;;1.55;0.65;;;;;;;-145.06;100.00;60892.56;6014716;23;20013;-92
2022/12/19 18:48:20;;;;;;;;;;;;;;;;;;;;;
2022/12/19 18:54:37;;;;;;;1.70;0.90;;;;;;;-145.06;100.00;60892.56;5981283;23;20024;-92
2022/12/19 18:57:27;;;;;;;0.93;0.50;;;;;;;-145.06;100.00;60892.56;6001281;23;20005;-91
2022/12/19 19:00:07;;;;;;;0.90;0.70;;;;;;;-145.06;100.00;60892.56;5999987;23;20004;-91
2022/12/19 19:03:23;;;;;;;;;;;;;;;-145.06;100.00;60892.56;6003259;23;20295;-92
2022/12/19 19:06:12;;;;;;;1.17;0.40;;;;;;;-145.06;100.00;60892.56;6004805;23;19904;-91
2022/12/19 19:08:55;;;;;;;1.25;0.63;;;;;;;-145.06;100.00;60892.56;6001035;23;20008;-91
2022/12/19 19:11:35;;;;;;;1.20;0.73;;;;;;;-145.06;100.00;60892.56;6001169;23;20009;-92
2022/12/19 19:14:14;;;;;;;1.88;0.70;;;;;;;-145.06;100.00;60892.56;6001770;23;20040;-92
2022/12/19 19:17:31;;;;;;;2.35;0.70;;;;;;;-145.06;100.00;60892.56;6001202;23;20004;-92
2022/12/19 19:20:32;;;;;;;1.17;0.60;;;;;;;-145.06;100.00;60892.56;6001115;23;20004;-91
2022/12/19 19:23:12;;;;;;;1.45;0.82;;;;;;;-145.06;100.00;60892.56;6011423;23;20008;-91
2022/12/19 19:25:51;;;;;;;1.40;0.80;;;;;;;-145.06;100.00;60892.56;6000085;23;20004;-92
2022/12/19 19:28:39;;;;;;;1.27;0.80;;;;;;;-145.06;100.00;60892.56;6000513;23;20320;-91
2022/12/19 19:31:33;;;;;;;;;;;;;;;;;;;;;
2022/12/19 19:34:27;;;;;;;0.50;0.50;;;;;;;-145.06;100.00;60892.56;6011463;23;20036;-92
2022/12/19 19:37:11;;;;;;;1.10;0.70;;;;;;;-145.06;100.00;60892.56;6001160;23;20083;-92
2022/12/19 19:40:40;;;;;;;0.93;0.70;;;;;;;-145.06;100.00;60892.56;6004314;23;20000;-92
2022/12/19 19:47:36;;;;;;;;;;;;;;;;;;;;;
2022/12/19 19:50:42;;;;;;;;;;;;;;;;;;;;;
2022/12/19 20:11:20;;;;;;;;;;;;;;;;;;;;;
2022/12/19 20:13:59;;;;;;;1.55;0.88;;;;;;;-145.06;100.00;60892.56;5896149;23;20006;-91
2022/12/19 20:16:49;;;;;;;0.60;0.60;;;;;;;-145.06;100.00;60892.56;5858829;23;20034;-92
2022/12/19 20:20:19;;;;;;;;;;;;;;;;;;;;;
2022/12/19 20:23:03;;;;;;;0.93;0.65;;;;;;;-145.06;100.00;60892.56;5877612;23;20010;-91
2022/12/19 20:29:10;;;;;;;1.77;0.80;;;;;;;-145.06;100.00;60892.56;6003353;22;20031;-90
2022/12/19 20:33:04;;;;;;;;;;;;;;;;;;;;;
2022/12/19 20:36:54;;;;;;;1.00;0.70;;;;;;;-145.06;100.00;60892.56;5974537;23;20025;-90
2022/12/19 20:40:11;;;;;;;;;;;;;;;;;;;;;
2022/12/19 20:43:43;;;;;;;;;;;;;;;;;;;;;
2022/12/19 20:47:25;;;;;;;;;;;;;;;;;;;;;
2022/12/19 20:57:54;;;;;;;0.80;0.60;;;;;;;-145.06;100.00;60892.56;5967180;23;20001;-91
2022/12/19 21:05:20;;;;;;;0.63;0.52;;;;;;;-145.06;100.00;60892.56;5872940;23;20010;-92
2022/12/19 21:20:10;;;;;;;;;;;;;;;;;;;;;
2022/12/19 21:23:26;;;;;;;0.60;0.40;;;;;;;-145.06;100.00;60892.56;5814051;23;20011;-92
2022/12/19 21:26:36;;;;;;;0.50;0.40;;;;;;;-145.06;100.00;60892.56;5853337;23;20010;-92
2022/12/19 21:30:15;;;;;;;0.50;0.35;;;;;;;-145.06;100.00;60892.56;5840770;23;20011;-91
2022/12/19 21:33:02;;;;;;;0.50;0.45;;;;;;;-145.06;100.00;60892.56;5779347;23;20012;-92
2022/12/19 21:39:51;;;;;;;;;;;;;;;;;;;;;
2022/12/19 22:02:12;;;;;;;;;;;;;;;;;;;;;
2022/12/19 22:09:24;;;;;;;;;;;;;;;;;;;;;
2022/12/19 22:12:57;;;;;;;;;;;;;;;;;;;;;
2022/12/19 22:20:10;;;;;;;1.08;0.63;;;;;;;-145.06;100.00;60892.56;5982699;23;20301;-91
2022/12/19 22:23:56;;;;;;;;;;;;;;;;;;;;;
2022/12/19 22:31:15;;;;;;;;;;;;;;;;;;;;;
2022/12/19 22:38:02;;;;;;;;;;;;;;;;;;;;;
2022/12/19 22:41:56;;;;;;;;;;;;;;;;;;;;;
2022/12/19 22:49:10;;;;;;;0.85;0.70;;;;;;;-145.06;100.00;60892.56;5869428;23;20006;-91
2022/12/19 22:52:36;;;;;;;;;;;;;;;;;;;;;
2022/12/19 22:55:18;;;;;;;1.42;0.60;;;;;;;-145.06;100.00;60892.56;5856804;23;20015;-90
2022/12/19 22:57:57;;;;;;;1.20;0.65;;;;;;;-145.06;100.00;60892.56;5943395;23;20005;-91
2022/12/19 23:00:37;;;;;;;1.30;0.70;;;;;;;-145.06;100.00;60892.56;5921461;23;20029;-91
2022/12/19 23:03:16;;;;;;;0.85;0.60;;;;;;;-145.06;100.00;60892.56;5922191;23;20001;-90
2022/12/19 23:05:56;;;;;;;1.17;0.65;;;;;;;-145.06;100.00;60892.56;5922332;23;20036;-92
2022/12/19 23:08:35;;;;;;;0.80;0.50;;;;;;;-145.06;100.00;60892.56;5943273;23;20005;-90
2022/12/19 23:11:22;;;;;;;1.67;0.60;;;;;;;-145.06;100.00;60892.56;5942465;23;20005;-90
2022/12/19 23:14:06;;;;;;;0.38;0.30;;;;;;;-145.06;100.00;60892.56;5922031;23;20013;-91
2022/12/19 23:16:44;;;;;;;1.15;0.47;;;;;;;-145.06;100.00;60892.56;5921977;23;20009;-92
2022/12/19 23:19:24;;;;;;;0.40;0.35;;;;;;;-145.06;100.00;60892.56;5922782;23;20001;-91
2022/12/19 23:22:06;;;;;;;0.32;0.30;;;;;;;-145.06;100.00;60892.56;5924245;23;20010;-91
2022/12/19 23:24:54;;;;;;;0.85;0.50;;;;;;;-145.06;100.00;60892.56;5924134;23;20005;-89
2022/12/19 23:27:37;;;;;;;0.45;0.32;;;;;;;-145.06;100.00;60892.56;5924375;23;20009;-91
2022/12/19 23:30:32;;;;;;;1.15;0.50;;;;;;;-145.06;100.00;60892.56;5923404;23;20005;-89
2022/12/19 23:33:11;;;;;;;1.08;0.40;;;;;;;-145.06;100.00;60892.56;5923966;23;20006;-90
2022/12/19 23:35:50;;;;;;;0.85;0.50;;;;;;;-145.06;100.00;60892.56;5924290;23;20033;-90
2022/12/19 23:38:29;;;;;;;0.32;0.30;;;;;;;-145.06;100.00;60892.56;5916660;23;20036;-90
2022/12/19 23:41:12;;;;;;;0.90;0.60;;;;;;;-145.06;100.00;60892.56;5916736;23;20009;-92
2022/12/19 23:43:54;;;;;;;0.60;0.60;;;;;;;-145.06;100.00;60892.56;5916510;23;20088;-91
2022/12/19 23:46:35;;;;;;;0.57;0.40;;;;;;;-145.06;100.00;60892.56;5916253;23;20009;-91
2022/12/19 23:49:14;;;;;;;0.43;0.40;;;;;;;-145.06;100.00;60892.56;5916463;23;20006;-89
2022/12/19 23:51:59;;;;;;;1.40;0.50;;;;;;;-145.06;100.00;60892.56;5927132;23;20084;-91
2022/12/19 23:54:38;;;;;;;1.08;0.63;;;;;;;-145.06;100.00;60892.56;5916368;23;20014;-91
2022/12/19 23:57:18;;;;;;;0.80;0.50;;;;;;;-145.06;100.00;60892.56;5916146;23;20010;-90
2022/12/19 23:59:59;;;;;;;;;;;;;;;-145.06;100.00;60892.56;5916691;23;20234;-93
